createdAt,value
2018-09-04T00:01:43.256Z,94448.32
2018-09-04T00:04:12.266Z,94449.77
2018-09-04T00:06:41.464Z,94451.24
2018-09-04T00:09:10.398Z,94442.65
2018-09-04T00:11:39.311Z,94443.44
2018-09-04T00:14:09.052Z,94448.93
2018-09-04T00:16:37.713Z,94440.87
2018-09-04T00:19:06.495Z,94447.53
2018-09-04T00:21:35.446Z,94445.20
2018-09-04T00:24:04.380Z,94451.73
2018-09-04T00:26:33.419Z,94443.98
2018-09-04T00:29:02.358Z,94448.16
2018-09-04T00:31:31.378Z,94436.77
2018-09-04T00:34:00.162Z,94441.62
2018-09-04T00:36:29.263Z,94444.03
2018-09-04T00:38:58.154Z,94447.22
2018-09-04T00:41:27.259Z,94445.58
2018-09-04T00:43:56.360Z,94443.77
2018-09-04T00:46:24.977Z,94438.83
2018-09-04T00:48:53.620Z,94435.05
2018-09-04T00:51:22.691Z,94441.05
2018-09-04T00:53:51.810Z,94438.58
2018-09-04T00:56:20.574Z,94443.20
2018-09-04T00:58:49.845Z,94448.48
2018-09-04T01:01:18.866Z,94448.40
2018-09-04T01:03:47.992Z,94455.00
2018-09-04T01:06:16.814Z,94455.70
2018-09-04T01:08:45.724Z,94455.13
2018-09-04T01:11:14.607Z,94460.92
2018-09-04T01:13:46.859Z,94456.20
2018-09-04T01:16:16.943Z,94457.43
2018-09-04T01:18:45.815Z,94465.80
2018-09-04T01:21:14.525Z,94469.84
2018-09-04T01:23:43.619Z,94468.91
2018-09-04T01:26:13.318Z,94467.74
2018-09-04T01:28:42.555Z,94470.56
2018-09-04T01:31:11.628Z,94472.94
2018-09-04T01:33:40.718Z,94470.16
2018-09-04T01:36:10.154Z,94478.66
2018-09-04T01:38:39.113Z,94468.96
2018-09-04T01:41:08.228Z,94467.70
2018-09-04T01:43:37.426Z,94462.16
2018-09-04T01:46:06.139Z,94461.28
2018-09-04T01:48:34.799Z,94463.28
2018-09-04T01:51:03.626Z,94468.98
2018-09-04T01:53:32.602Z,94466.70
2018-09-04T01:56:01.523Z,94471.67
2018-09-04T01:58:30.764Z,94469.24
2018-09-04T02:00:59.513Z,94466.38
2018-09-04T02:03:28.706Z,94467.74
2018-09-04T02:05:57.594Z,94473.78
2018-09-04T02:08:26.455Z,94473.20
2018-09-04T02:10:55.312Z,94467.56
2018-09-04T02:13:24.562Z,94471.63
2018-09-04T02:15:53.340Z,94477.25
2018-09-04T02:18:22.162Z,94467.87
2018-09-04T02:20:51.170Z,94474.28
2018-09-04T02:23:20.100Z,94468.70
2018-09-04T02:25:49.106Z,94470.37
2018-09-04T02:28:18.416Z,94464.25
2018-09-04T02:30:47.558Z,94467.13
2018-09-04T02:33:16.335Z,94468.86
2018-09-04T02:35:45.429Z,94467.36
2018-09-04T02:38:14.375Z,94459.97
2018-09-04T02:40:43.284Z,94461.30
2018-09-04T02:43:12.584Z,94459.16
2018-09-04T02:45:41.319Z,94459.20
2018-09-04T02:48:10.163Z,94464.30
2018-09-04T02:50:39.241Z,94471.61
2018-09-04T02:53:07.950Z,94474.70
2018-09-04T02:55:36.926Z,94474.95
2018-09-04T02:58:07.050Z,94473.61
2018-09-04T03:00:36.232Z,94471.70
2018-09-04T03:03:05.280Z,94472.71
2018-09-04T03:05:34.151Z,94480.30
2018-09-04T03:08:03.001Z,94473.52
2018-09-04T03:10:31.846Z,94478.00
2018-09-04T03:13:01.003Z,94471.12
2018-09-04T03:15:29.717Z,94473.08
2018-09-04T03:17:58.537Z,94463.69
2018-09-04T03:20:27.326Z,94470.74
2018-09-04T03:22:56.502Z,94467.25
2018-09-04T03:25:25.338Z,94471.73
2018-09-04T03:27:54.675Z,94462.90
2018-09-04T03:30:23.632Z,94458.02
2018-09-04T03:32:52.500Z,94458.61
2018-09-04T03:35:21.314Z,94453.80
2018-09-04T03:37:50.207Z,94445.90
2018-09-04T03:40:19.117Z,94440.16
2018-09-04T03:42:48.334Z,94442.62
2018-09-04T03:45:17.068Z,94437.40
2018-09-04T03:47:45.822Z,94443.80
2018-09-04T03:50:14.510Z,94439.84
2018-09-04T03:52:43.463Z,94449.40
2018-09-04T03:55:12.318Z,94444.00
2018-09-04T03:57:41.374Z,94450.38
2018-09-04T04:00:10.686Z,94460.53
2018-09-04T04:02:39.843Z,94464.15
2018-09-04T04:05:08.991Z,94465.94
2018-09-04T04:07:38.157Z,94466.25
2018-09-04T04:10:06.824Z,94474.09
2018-09-04T04:12:35.858Z,94474.42
2018-09-04T04:15:04.633Z,94476.61
2018-09-04T04:17:33.497Z,94468.19
2018-09-04T04:20:02.567Z,94470.55
2018-09-04T04:22:31.494Z,94472.59
2018-09-04T04:25:00.332Z,94473.52
2018-09-04T04:27:29.522Z,94473.63
2018-09-04T04:29:58.539Z,94469.86
2018-09-04T04:32:27.898Z,94479.86
2018-09-04T04:34:56.867Z,94474.23
2018-09-04T04:37:25.767Z,94476.50
2018-09-04T04:39:54.593Z,94475.23
2018-09-04T04:42:24.194Z,94478.87
2018-09-04T04:44:52.792Z,94473.38
2018-09-04T04:47:26.815Z,94476.25
2018-09-04T04:49:55.709Z,94476.44
2018-09-04T04:52:24.652Z,94475.92
2018-09-04T04:54:54.161Z,94477.16
2018-09-04T04:57:23.258Z,94473.13
2018-09-04T04:59:52.707Z,94476.71
2018-09-04T05:02:21.992Z,94471.78
2018-09-04T05:04:50.780Z,94474.28
2018-09-04T05:07:19.968Z,94472.02
2018-09-04T05:09:49.322Z,94473.03
2018-09-04T05:12:18.402Z,94475.03
2018-09-04T05:14:47.295Z,94473.76
2018-09-04T05:17:16.318Z,94471.80
2018-09-04T05:19:45.204Z,94470.86
2018-09-04T05:22:14.123Z,94481.48
2018-09-04T05:24:43.159Z,94471.84
2018-09-04T05:27:12.585Z,94469.23
2018-09-04T05:29:41.405Z,94464.78
2018-09-04T05:32:15.906Z,94472.20
2018-09-04T05:34:44.826Z,94473.68
2018-09-04T05:37:13.751Z,94477.08
2018-09-04T05:39:42.841Z,94476.23
2018-09-04T05:42:16.826Z,94476.88
2018-09-04T05:44:46.283Z,94479.17
2018-09-04T05:47:15.117Z,94474.61
2018-09-04T05:49:43.918Z,94476.17
2018-09-04T05:52:12.846Z,94476.02
2018-09-04T05:54:42.090Z,94468.69
2018-09-04T05:57:10.969Z,94471.89
2018-09-04T05:59:40.670Z,94470.08
2018-09-04T06:02:09.609Z,94475.60
2018-09-04T06:04:38.804Z,94472.52
2018-09-04T06:07:07.664Z,94473.78
2018-09-04T06:09:36.530Z,94471.14
2018-09-04T06:12:05.671Z,94474.48
2018-09-04T06:14:34.887Z,94470.17
2018-09-04T06:17:04.171Z,94469.23
2018-09-04T06:19:33.186Z,94470.70
2018-09-04T06:22:02.262Z,94471.73
2018-09-04T06:24:31.160Z,94478.56
2018-09-04T06:27:00.353Z,94474.74
2018-09-04T06:29:29.464Z,94468.95
2018-09-04T06:31:58.848Z,94463.82
2018-09-04T06:34:27.722Z,94470.36
2018-09-04T06:36:57.012Z,94471.73
2018-09-04T06:39:26.154Z,94479.13
2018-09-04T06:41:55.082Z,94483.11
2018-09-04T06:44:24.646Z,94480.50
2018-09-04T06:46:53.338Z,94484.25
2018-09-04T06:49:22.101Z,94490.58
2018-09-04T06:51:51.761Z,94487.10
2018-09-04T06:54:20.439Z,94490.45
2018-09-04T06:56:49.694Z,94487.80
2018-09-04T06:59:18.825Z,94491.52
2018-09-04T07:01:47.828Z,94492.13
2018-09-04T07:04:17.066Z,94500.00
2018-09-04T07:06:46.375Z,94495.92
2018-09-04T07:09:15.511Z,94489.56
2018-09-04T07:11:45.020Z,94492.94
2018-09-04T07:14:14.225Z,94493.30
2018-09-04T07:16:43.043Z,94493.58
2018-09-04T07:19:16.550Z,94494.67
2018-09-04T07:21:45.325Z,94495.31
2018-09-04T07:24:14.776Z,94497.73
2018-09-04T07:26:44.534Z,94499.58
2018-09-04T07:29:13.412Z,94498.94
2018-09-04T07:31:42.754Z,94504.45
2018-09-04T07:34:11.698Z,94504.78
2018-09-04T07:36:40.699Z,94509.41
2018-09-04T07:39:11.014Z,94504.10
2018-09-04T07:41:40.557Z,94506.12
2018-09-04T07:44:09.342Z,94510.20
2018-09-04T07:46:38.307Z,94507.34
2018-09-04T07:49:07.377Z,94509.75
2018-09-04T07:51:36.296Z,94499.72
2018-09-04T07:54:05.225Z,94498.76
2018-09-04T07:56:34.711Z,94495.04
2018-09-04T07:59:03.446Z,94493.03
2018-09-04T08:01:32.286Z,94490.21
2018-09-04T08:04:01.779Z,94492.84
2018-09-04T08:06:31.042Z,94492.63
2018-09-04T08:09:00.278Z,94492.64
2018-09-04T08:11:29.609Z,94495.84
2018-09-04T08:13:58.678Z,94488.10
2018-09-04T08:16:27.476Z,94483.69
2018-09-04T08:18:56.662Z,94495.76
2018-09-04T08:21:26.131Z,94481.91
2018-09-04T08:23:54.982Z,94481.48
2018-09-04T08:26:24.258Z,94478.89
2018-09-04T08:28:53.341Z,94484.59
2018-09-04T08:31:22.040Z,94483.83
2018-09-04T08:33:51.462Z,94477.05
2018-09-04T08:36:20.655Z,94470.25
2018-09-04T08:38:50.052Z,94467.47
2018-09-04T08:41:19.980Z,94474.42
2018-09-04T08:43:49.276Z,94468.85
2018-09-04T08:46:18.536Z,94466.92
2018-09-04T08:48:47.655Z,94469.27
2018-09-04T08:51:16.366Z,94463.73
2018-09-04T08:53:45.222Z,94463.58
2018-09-04T08:56:14.642Z,94456.62
2018-09-04T08:58:43.642Z,94401.56
2018-09-04T09:01:12.428Z,94453.95
2018-09-04T09:03:41.793Z,94458.42
2018-09-04T09:06:10.731Z,94449.88
2018-09-04T09:08:39.795Z,94447.76
2018-09-04T09:11:09.174Z,94452.86
2018-09-04T09:13:38.087Z,94450.73
2018-09-04T09:16:07.240Z,94446.42
2018-09-04T09:18:36.598Z,94441.59
2018-09-04T09:21:05.355Z,94439.39
2018-09-04T09:23:34.061Z,94443.98
2018-09-04T09:26:03.020Z,94439.09
2018-09-04T09:28:32.449Z,94450.69
2018-09-04T09:31:01.411Z,94439.67
2018-09-04T09:33:30.910Z,94439.63
2018-09-04T09:35:59.817Z,94441.16
2018-09-04T09:38:28.768Z,94429.75
2018-09-04T09:40:58.206Z,94432.29
2018-09-04T09:43:27.278Z,94426.55
2018-09-04T09:45:56.381Z,94431.36
2018-09-04T09:48:29.790Z,94423.88
2018-09-04T09:50:58.679Z,94429.87
2018-09-04T09:53:27.554Z,94424.16
2018-09-04T09:55:56.466Z,94432.17
2018-09-04T09:58:25.477Z,94427.67
2018-09-04T10:00:58.919Z,94425.40
2018-09-04T10:03:33.140Z,94424.27
2018-09-04T10:06:02.049Z,94428.90
2018-09-04T10:08:31.270Z,94425.52
2018-09-04T10:11:00.371Z,94426.03
2018-09-04T10:13:29.450Z,94429.63
2018-09-04T10:15:58.305Z,94430.87
2018-09-04T10:18:27.066Z,94425.44
2018-09-04T10:20:56.146Z,94429.78
2018-09-04T10:23:25.076Z,94422.63
2018-09-04T10:25:54.278Z,94419.58
2018-09-04T10:28:23.515Z,94415.63
2018-09-04T10:30:52.298Z,94411.61
2018-09-04T10:33:21.206Z,94405.48
2018-09-04T10:35:50.424Z,94402.22
2018-09-04T10:38:19.138Z,94401.98
2018-09-04T10:40:48.695Z,94403.29
2018-09-04T10:43:18.907Z,94398.26
2018-09-04T10:45:52.829Z,94391.81
2018-09-04T10:48:24.850Z,94381.53
2018-09-04T10:50:53.872Z,94388.84
2018-09-04T10:53:22.617Z,94384.40
2018-09-04T10:55:51.426Z,94378.27
2018-09-04T10:58:20.355Z,94370.68
2018-09-04T11:00:49.509Z,94373.57
2018-09-04T11:03:18.367Z,94376.16
2018-09-04T11:05:47.421Z,94370.08
2018-09-04T11:08:16.499Z,94369.09
2018-09-04T11:10:45.960Z,94367.21
2018-09-04T11:13:14.923Z,94366.27
2018-09-04T11:15:44.028Z,94361.69
2018-09-04T11:18:13.367Z,94356.68
2018-09-04T11:20:42.149Z,94361.52
2018-09-04T11:23:10.902Z,94350.41
2018-09-04T11:25:40.008Z,94338.89
2018-09-04T11:28:08.927Z,94340.17
2018-09-04T11:30:37.934Z,94334.02
2018-09-04T11:33:07.289Z,94328.45
2018-09-04T11:35:36.159Z,94323.23
2018-09-04T11:38:05.092Z,94326.43
2018-09-04T11:40:34.399Z,94314.27
2018-09-04T11:43:03.413Z,94314.41
2018-09-04T11:45:32.467Z,94314.95
2018-09-04T11:48:01.678Z,94309.81
2018-09-04T11:50:30.350Z,94308.02
2018-09-04T11:52:59.036Z,94294.59
2018-09-04T11:55:28.095Z,94290.90
2018-09-04T11:57:56.954Z,94293.82
2018-09-04T12:00:43.333Z,94294.38
2018-09-04T12:03:13.814Z,94292.08
2018-09-04T12:05:42.659Z,94277.91
2018-09-04T12:08:12.496Z,94281.61
2018-09-04T12:10:41.475Z,94281.69
2018-09-04T12:13:10.474Z,94277.87
2018-09-04T12:15:40.405Z,94281.00
2018-09-04T12:18:10.382Z,94271.59
2018-09-04T12:20:42.387Z,94267.47
2018-09-04T12:23:12.027Z,94254.96
2018-09-04T12:25:41.399Z,94257.06
2018-09-04T12:28:10.452Z,94256.91
2018-09-04T12:30:39.526Z,94262.14
2018-09-04T12:33:09.037Z,94253.66
2018-09-04T12:35:38.218Z,94252.98
2018-09-04T12:38:10.471Z,94255.06
2018-09-04T12:40:39.472Z,94243.68
2018-09-04T12:43:08.722Z,94244.13
2018-09-04T12:45:43.058Z,94229.89
2018-09-04T12:48:13.395Z,94233.88
2018-09-04T12:50:42.038Z,94231.59
2018-09-04T12:53:10.788Z,94234.90
2018-09-04T12:55:39.511Z,94232.52
2018-09-04T12:58:08.225Z,94223.27
2018-09-04T13:00:37.939Z,94226.76
2018-09-04T13:03:06.918Z,94223.11
2018-09-04T13:05:36.160Z,94221.75
2018-09-04T13:08:05.642Z,94216.70
2018-09-04T13:10:34.420Z,94221.30
2018-09-04T13:13:03.350Z,94216.63
2018-09-04T13:15:32.851Z,94213.12
2018-09-04T13:18:01.664Z,94215.63
2018-09-04T13:20:30.389Z,94203.10
2018-09-04T13:22:59.746Z,94205.72
2018-09-04T13:25:28.508Z,94190.60
2018-09-04T13:27:57.358Z,94200.17
2018-09-04T13:30:26.819Z,94198.55
2018-09-04T13:32:55.937Z,94200.23
2018-09-04T13:35:25.000Z,94207.07
2018-09-04T13:37:54.501Z,94207.67
2018-09-04T13:40:23.289Z,94210.24
2018-09-04T13:42:52.342Z,94204.86
2018-09-04T13:45:21.816Z,94192.17
2018-09-04T13:47:52.156Z,94197.88
2018-09-04T13:50:20.821Z,93958.42
2018-09-04T13:52:49.774Z,94188.48
2018-09-04T13:55:18.420Z,94193.94
2018-09-04T13:57:47.444Z,94192.61
2018-09-04T14:00:17.716Z,94189.41
2018-09-04T14:02:46.591Z,94199.63
2018-09-04T14:05:15.482Z,94202.88
2018-09-04T14:07:44.645Z,94204.03
2018-09-04T14:10:13.734Z,94202.33
2018-09-04T14:12:42.838Z,94192.27
2018-09-04T14:15:12.259Z,94195.41
2018-09-04T14:17:41.244Z,94196.20
2018-09-04T14:20:09.993Z,94203.05
2018-09-04T14:22:39.096Z,94201.20
2018-09-04T14:25:07.725Z,94200.13
2018-09-04T14:27:36.774Z,94201.92
2018-09-04T14:30:18.383Z,94207.06
2018-09-04T14:32:35.345Z,94208.02
2018-09-04T14:35:04.284Z,94209.44
2018-09-04T14:37:33.635Z,94205.46
2018-09-04T14:40:02.621Z,94214.59
2018-09-04T14:42:31.605Z,94218.95
2018-09-04T14:45:01.037Z,94219.17
2018-09-04T14:47:30.078Z,94216.05
2018-09-04T14:49:58.802Z,94215.27
2018-09-04T14:52:27.887Z,94220.08
2018-09-04T14:54:56.755Z,94213.95
2018-09-04T14:57:25.446Z,94217.74
2018-09-04T14:59:54.957Z,94219.69
2018-09-04T15:02:24.143Z,94221.78
2018-09-04T15:04:53.285Z,94226.70
2018-09-04T15:07:22.704Z,94228.26
2018-09-04T15:09:51.799Z,94221.23
2018-09-04T15:12:20.548Z,94222.66
2018-09-04T15:14:49.962Z,94220.36
2018-09-04T15:17:19.098Z,94224.50
2018-09-04T15:19:47.767Z,94225.92
2018-09-04T15:22:16.786Z,94232.98
2018-09-04T15:24:45.834Z,94232.03
2018-09-04T15:27:14.782Z,94230.17
2018-09-04T15:29:43.909Z,94225.13
2018-09-04T15:32:13.000Z,94222.95
2018-09-04T15:34:41.695Z,94223.72
2018-09-04T15:37:10.828Z,94221.77
2018-09-04T15:39:40.055Z,94221.92
2018-09-04T15:42:09.100Z,94219.84
2018-09-04T15:44:38.084Z,94223.67
2018-09-04T15:47:06.995Z,94225.06
2018-09-04T15:49:40.816Z,94223.98
2018-09-04T15:52:09.721Z,94226.92
2018-09-04T15:54:38.754Z,94221.19
2018-09-04T15:57:07.575Z,94228.78
2018-09-04T15:59:36.464Z,94224.45
2018-09-04T16:02:05.348Z,94225.81
2018-09-04T16:04:34.529Z,94227.48
2018-09-04T16:07:03.274Z,94231.92
2018-09-04T16:09:32.024Z,94232.70
2018-09-04T16:12:00.902Z,94227.11
2018-09-04T16:14:29.590Z,94224.72
2018-09-04T16:16:58.596Z,94227.22
2018-09-04T16:19:27.473Z,94227.03
2018-09-04T16:21:56.386Z,94226.06
2018-09-04T16:24:25.380Z,94231.41
2018-09-04T16:26:54.696Z,94234.03
2018-09-04T16:29:23.546Z,94231.89
2018-09-04T16:31:52.766Z,94235.52
2018-09-04T16:34:21.979Z,94236.86
2018-09-04T16:36:50.723Z,94242.95
2018-09-04T16:39:19.833Z,94248.61
2018-09-04T16:41:49.171Z,94249.44
2018-09-04T16:44:18.289Z,94248.70
2018-09-04T16:46:47.138Z,94254.31
2018-09-04T16:49:16.360Z,94247.41
2018-09-04T16:51:45.224Z,94251.04
2018-09-04T16:54:14.020Z,94261.06
2018-09-04T16:56:42.843Z,94261.94
2018-09-04T16:59:11.703Z,94272.19
2018-09-04T17:01:40.695Z,94276.64
2018-09-04T17:04:09.883Z,94277.34
2018-09-04T17:06:38.785Z,94276.27
2018-09-04T17:09:08.120Z,94279.64
2018-09-04T17:11:37.550Z,94279.92
2018-09-04T17:14:06.925Z,94282.41
2018-09-04T17:16:36.092Z,94282.60
2018-09-04T17:19:05.607Z,94275.28
2018-09-04T17:21:34.408Z,94284.67
2018-09-04T17:24:03.530Z,94285.30
2018-09-04T17:26:32.721Z,94285.47
2018-09-04T17:29:01.633Z,94288.77
2018-09-04T17:31:30.576Z,94289.26
2018-09-04T17:33:59.583Z,94297.39
2018-09-04T17:36:28.657Z,94293.87
2018-09-04T17:38:57.447Z,94299.23
2018-09-04T17:41:26.669Z,94290.11
2018-09-04T17:43:55.539Z,94290.91
2018-09-04T17:46:24.416Z,94293.25
2018-09-04T17:48:53.310Z,94293.38
2018-09-04T17:51:22.141Z,94299.37
2018-09-04T17:53:50.924Z,94302.59
2018-09-04T17:56:20.188Z,94306.05
2018-09-04T17:58:49.122Z,94311.47
2018-09-04T18:01:18.085Z,94320.25
2018-09-04T18:03:47.427Z,94316.80
2018-09-04T18:06:16.279Z,94321.34
2018-09-04T18:08:45.295Z,94326.30
2018-09-04T18:11:14.277Z,94326.72
2018-09-04T18:13:42.974Z,94326.53
2018-09-04T18:16:11.914Z,94328.23
2018-09-04T18:18:40.927Z,94331.37
2018-09-04T18:21:09.815Z,94323.47
2018-09-04T18:23:38.518Z,94331.00
2018-09-04T18:26:07.662Z,94332.44
2018-09-04T18:28:36.640Z,94333.17
2018-09-04T18:31:05.757Z,94337.39
2018-09-04T18:33:35.418Z,94340.28
2018-09-04T18:36:04.278Z,94345.37
2018-09-04T18:38:33.466Z,94346.14
2018-09-04T18:41:02.698Z,94352.47
2018-09-04T18:43:31.716Z,94347.14
2018-09-04T18:46:00.510Z,94345.67
2018-09-04T18:48:29.575Z,94349.33
2018-09-04T18:50:58.325Z,94354.63
2018-09-04T18:53:27.084Z,94355.97
2018-09-04T18:55:56.081Z,94354.18
2018-09-04T18:58:24.727Z,94367.98
2018-09-04T19:00:53.487Z,94365.17
2018-09-04T19:03:22.864Z,94364.55
2018-09-04T19:05:51.605Z,94368.41
2018-09-04T19:08:20.591Z,94376.42
2018-09-04T19:10:49.811Z,94374.70
2018-09-04T19:13:18.636Z,94379.31
2018-09-04T19:15:47.546Z,94382.21
2018-09-04T19:18:16.335Z,94375.43
2018-09-04T19:20:45.069Z,94374.46
2018-09-04T19:23:13.881Z,94379.42
2018-09-04T19:25:43.002Z,94382.03
2018-09-04T19:28:11.860Z,94383.35
2018-09-04T19:30:40.657Z,94372.93
2018-09-04T19:33:09.620Z,94379.66
2018-09-04T19:35:38.339Z,94382.77
2018-09-04T19:38:07.425Z,94372.31
2018-09-04T19:40:36.947Z,94372.59
2018-09-04T19:43:05.844Z,94374.69
2018-09-04T19:45:34.689Z,94375.20
2018-09-04T19:48:03.551Z,94372.89
2018-09-04T19:50:32.286Z,94372.78
2018-09-04T19:53:01.015Z,94376.87
2018-09-04T19:55:30.087Z,94375.26
2018-09-04T19:57:58.877Z,94375.02
2018-09-04T20:00:28.162Z,94379.14
2018-09-04T20:02:57.291Z,94375.79
2018-09-04T20:05:26.206Z,94373.14
2018-09-04T20:07:55.351Z,94371.03
2018-09-04T20:10:24.490Z,94371.26
2018-09-04T20:12:53.352Z,94371.59
2018-09-04T20:15:22.254Z,94381.19
2018-09-04T20:17:51.379Z,94394.93
2018-09-04T20:20:20.121Z,94418.59
2018-09-04T20:22:49.072Z,94436.13
2018-09-04T20:25:17.834Z,94425.47
2018-09-04T20:27:46.660Z,94415.69
2018-09-04T20:30:15.562Z,94424.76
2018-09-04T20:32:44.786Z,94427.33
2018-09-04T20:35:14.030Z,94449.59
2018-09-04T20:37:42.986Z,94451.70
2018-09-04T20:40:12.655Z,94451.69
2018-09-04T20:42:41.569Z,94453.69
2018-09-04T20:45:10.524Z,94440.86
2018-09-04T20:47:39.615Z,94439.82
2018-09-04T20:50:08.438Z,94459.17
2018-09-04T20:52:37.158Z,94446.27
2018-09-04T20:55:06.681Z,94456.72
2018-09-04T20:57:40.571Z,94465.28
2018-09-04T21:00:22.274Z,94472.15
2018-09-04T21:03:02.250Z,94466.11
2018-09-04T21:05:42.585Z,94472.40
2018-09-04T21:08:24.386Z,94482.65
2018-09-04T21:10:54.108Z,94484.66
2018-09-04T21:13:54.615Z,94475.56
2018-09-04T21:16:23.874Z,94467.96
2018-09-04T21:18:52.642Z,94465.73
2018-09-04T21:21:21.507Z,94467.36
2018-09-04T21:23:51.017Z,94465.07
2018-09-04T21:26:19.793Z,94471.95
2018-09-04T21:28:48.617Z,94463.33
2018-09-04T21:31:18.301Z,94466.67
2018-09-04T21:33:47.182Z,94462.92
2018-09-04T21:36:16.125Z,94462.87
2018-09-04T21:38:45.417Z,94457.70
2018-09-04T21:41:14.369Z,94460.87
2018-09-04T21:43:43.163Z,94460.71
2018-09-04T21:46:12.361Z,94453.33
2018-09-04T21:48:41.091Z,94459.77
2018-09-04T21:51:09.697Z,94460.09
2018-09-04T21:53:39.058Z,94460.13
2018-09-04T21:56:07.702Z,94454.95
2018-09-04T21:58:36.887Z,94450.64
2018-09-04T22:01:06.319Z,94450.88
2018-09-04T22:03:35.507Z,94449.16
2018-09-04T22:06:04.238Z,94444.44
2018-09-04T22:08:33.323Z,94442.92
2018-09-04T22:11:02.340Z,94397.03
2018-09-04T22:13:31.234Z,94456.48
2018-09-04T22:16:00.368Z,94452.91
2018-09-04T22:18:29.155Z,94453.05
2018-09-04T22:20:57.828Z,94458.32
2018-09-04T22:23:26.608Z,94446.95
2018-09-04T22:25:55.485Z,94444.05
2018-09-04T22:28:24.540Z,94447.55
2018-09-04T22:30:53.467Z,94447.45
2018-09-04T22:33:22.517Z,94453.20
2018-09-04T22:35:51.324Z,94453.10
2018-09-04T22:38:20.452Z,94454.48
2018-09-04T22:40:49.505Z,94449.95
2018-09-04T22:43:18.402Z,94446.77
2018-09-04T22:45:47.628Z,94454.59
2018-09-04T22:48:16.287Z,94448.62
2018-09-04T22:50:50.427Z,94443.51
2018-09-04T22:53:19.042Z,94439.17
2018-09-04T22:55:48.131Z,94438.33
2018-09-04T22:58:17.457Z,94431.70
2018-09-04T23:00:46.377Z,94441.66
2018-09-04T23:03:15.225Z,94431.41
2018-09-04T23:05:44.023Z,94428.11
2018-09-04T23:08:12.782Z,94427.58
2018-09-04T23:10:41.674Z,94422.31
2018-09-04T23:13:11.191Z,94417.36
2018-09-04T23:15:42.796Z,94408.17
2018-09-04T23:18:12.828Z,94402.06
2018-09-04T23:20:41.749Z,94400.67
2018-09-04T23:23:10.542Z,94401.16
2018-09-04T23:25:39.698Z,94401.75
2018-09-04T23:28:08.565Z,94398.64
2018-09-04T23:30:37.482Z,94396.83
2018-09-04T23:33:06.882Z,94395.67
2018-09-04T23:35:35.776Z,94400.13
2018-09-04T23:38:04.766Z,94400.25
2018-09-04T23:40:34.096Z,94393.94
2018-09-04T23:43:03.243Z,94380.12
2018-09-04T23:45:31.960Z,94393.34
2018-09-04T23:48:00.915Z,94391.97
2018-09-04T23:50:30.607Z,94384.97
2018-09-04T23:52:59.195Z,94376.77
2018-09-04T23:55:28.466Z,94379.11
2018-09-04T23:57:57.555Z,94373.82
